sensor_id;sensor_type;location;lat;lon;timestamp;temperature;humidity
14873;DHT22;7528;48.576;19.122;2023-02-12T09:23:00;14.00;47.60
14873;DHT22;7528;48.576;19.122;2023-02-12T09:28:03;14.50;46.60
14873;DHT22;7528;48.576;19.122;2023-02-12T09:33:06;15.00;45.30
14873;DHT22;7528;48.576;19.122;2023-02-12T09:38:12;16.20;43.20
14873;DHT22;7528;48.576;19.122;2023-02-12T09:43:17;19.00;38.80
14873;DHT22;7528;48.576;19.122;2023-02-12T09:48:38;21.50;33.40
14873;DHT22;7528;48.576;19.122;2023-02-12T09:53:45;23.80;29.60
14873;DHT22;7528;48.576;19.122;2023-02-12T09:58:51;25.40;27.10
14873;DHT22;7528;48.576;19.122;2023-02-12T10:03:55;26.50;26.00
14873;DHT22;7528;48.576;19.122;2023-02-12T10:09:06;26.20;25.10
14873;DHT22;7528;48.576;19.122;2023-02-12T10:14:28;27.00;25.00
14873;DHT22;7528;48.576;19.122;2023-02-12T10:19:44;27.50;23.50
14873;DHT22;7528;48.576;19.122;2023-02-12T10:25:07;27.60;23.80
14873;DHT22;7528;48.576;19.122;2023-02-12T10:30:16;29.20;22.10
14873;DHT22;7528;48.576;19.122;2023-02-12T10:35:23;30.30;21.00
14873;DHT22;7528;48.576;19.122;2023-02-12T10:40:30;30.60;18.70
14873;DHT22;7528;48.576;19.122;2023-02-12T10:45:35;30.80;17.20
14873;DHT22;7528;48.576;19.122;2023-02-12T10:51:01;31.10;16.60
14873;DHT22;7528;48.576;19.122;2023-02-12T10:56:17;31.70;16.00
14873;DHT22;7528;48.576;19.122;2023-02-12T11:01:24;32.10;15.50
14873;DHT22;7528;48.576;19.122;2023-02-12T11:06:29;32.10;15.10
14873;DHT22;7528;48.576;19.122;2023-02-12T11:11:37;32.10;14.80
14873;DHT22;7528;48.576;19.122;2023-02-12T11:16:44;32.80;14.90
14873;DHT22;7528;48.576;19.122;2023-02-12T11:21:48;33.40;14.30
14873;DHT22;7528;48.576;19.122;2023-02-12T11:27:11;33.50;13.90
14873;DHT22;7528;48.576;19.122;2023-02-12T11:32:15;34.00;14.30
14873;DHT22;7528;48.576;19.122;2023-02-12T11:37:19;34.30;13.90
14873;DHT22;7528;48.576;19.122;2023-02-12T11:42:24;33.90;13.90
14873;DHT22;7528;48.576;19.122;2023-02-12T11:47:30;34.00;14.30
14873;DHT22;7528;48.576;19.122;2023-02-12T11:52:35;35.00;13.90
14873;DHT22;7528;48.576;19.122;2023-02-12T11:57:46;34.80;16.00
14873;DHT22;7528;48.576;19.122;2023-02-12T12:02:53;35.20;15.10
14873;DHT22;7528;48.576;19.122;2023-02-12T12:08:01;35.90;14.80
14873;DHT22;7528;48.576;19.122;2023-02-12T12:13:12;36.60;12.60
14873;DHT22;7528;48.576;19.122;2023-02-12T12:18:27;36.90;12.60
14873;DHT22;7528;48.576;19.122;2023-02-12T12:23:51;36.80;12.20
14873;DHT22;7528;48.576;19.122;2023-02-12T12:29:01;36.20;12.00
14873;DHT22;7528;48.576;19.122;2023-02-12T12:34:08;36.40;12.40
14873;DHT22;7528;48.576;19.122;2023-02-12T12:39:19;36.20;12.20
14873;DHT22;7528;48.576;19.122;2023-02-12T12:44:32;35.30;13.30
14873;DHT22;7528;48.576;19.122;2023-02-12T12:49:52;35.30;14.70
14873;DHT22;7528;48.576;19.122;2023-02-12T12:55:16;35.80;14.40
14873;DHT22;7528;48.576;19.122;2023-02-12T13:00:58;35.90;14.20
14873;DHT22;7528;48.576;19.122;2023-02-12T13:06:20;35.00;14.50
14873;DHT22;7528;48.576;19.122;2023-02-12T13:11:38;35.30;14.50
14873;DHT22;7528;48.576;19.122;2023-02-12T13:16:46;35.30;14.40
14873;DHT22;7528;48.576;19.122;2023-02-12T13:21:54;34.80;14.50
14873;DHT22;7528;48.576;19.122;2023-02-12T13:27:01;34.50;14.50
14873;DHT22;7528;48.576;19.122;2023-02-12T13:32:13;33.10;15.40
14873;DHT22;7528;48.576;19.122;2023-02-12T13:37:27;31.80;16.00
14873;DHT22;7528;48.576;19.122;2023-02-12T13:42:42;31.20;16.40
14873;DHT22;7528;48.576;19.122;2023-02-12T13:47:58;31.20;16.60
14873;DHT22;7528;48.576;19.122;2023-02-12T13:53:14;31.70;16.40
14873;DHT22;7528;48.576;19.122;2023-02-12T13:58:37;32.40;15.90
14873;DHT22;7528;48.576;19.122;2023-02-12T14:03:42;32.70;15.50
14873;DHT22;7528;48.576;19.122;2023-02-12T14:08:47;32.80;15.40
14873;DHT22;7528;48.576;19.122;2023-02-12T14:13:54;32.20;15.80
14873;DHT22;7528;48.576;19.122;2023-02-12T14:24:50;30.30;17.00
14873;DHT22;7528;48.576;19.122;2023-02-12T14:35:31;28.90;18.00
14873;DHT22;7528;48.576;19.122;2023-02-12T14:40:40;28.30;18.00
14873;DHT22;7528;48.576;19.122;2023-02-12T14:45:44;26.70;19.50
14873;DHT22;7528;48.576;19.122;2023-02-12T14:50:46;25.30;20.30
14873;DHT22;7528;48.576;19.122;2023-02-12T14:55:53;24.10;21.60
14873;DHT22;7528;48.576;19.122;2023-02-12T15:00:59;23.00;23.00
14873;DHT22;7528;48.576;19.122;2023-02-12T15:06:07;21.90;23.60
14873;DHT22;7528;48.576;19.122;2023-02-12T15:11:23;20.80;24.80
14873;DHT22;7528;48.576;19.122;2023-02-12T15:16:34;20.10;25.60
14873;DHT22;7528;48.576;19.122;2023-02-12T15:21:39;19.30;26.50
14873;DHT22;7528;48.576;19.122;2023-02-12T15:26:47;19.10;27.10
14873;DHT22;7528;48.576;19.122;2023-02-12T15:31:52;19.10;27.30
14873;DHT22;7528;48.576;19.122;2023-02-12T15:36:57;18.70;28.20
14873;DHT22;7528;48.576;19.122;2023-02-12T15:42:01;18.20;29.20
14873;DHT22;7528;48.576;19.122;2023-02-12T15:47:11;17.90;29.80
14873;DHT22;7528;48.576;19.122;2023-02-12T15:52:18;17.50;30.40
14873;DHT22;7528;48.576;19.122;2023-02-12T15:57:24;17.10;31.50
14873;DHT22;7528;48.576;19.122;2023-02-12T16:02:29;16.70;31.30
14873;DHT22;7528;48.576;19.122;2023-02-12T16:07:35;16.10;32.60
14873;DHT22;7528;48.576;19.122;2023-02-12T16:12:41;15.70;33.70
14873;DHT22;7528;48.576;19.122;2023-02-12T16:17:46;15.40;34.50
14873;DHT22;7528;48.576;19.122;2023-02-12T16:22:49;15.10;34.90
14873;DHT22;7528;48.576;19.122;2023-02-12T17:39:35;9.30;47.20
14873;DHT22;7528;48.576;19.122;2023-02-12T17:44:37;9.40;48.10
14873;DHT22;7528;48.576;19.122;2023-02-12T17:49:41;9.70;47.20
14873;DHT22;7528;48.576;19.122;2023-02-12T17:54:45;9.60;46.90
14873;DHT22;7528;48.576;19.122;2023-02-12T17:59:47;9.60;47.00
14873;DHT22;7528;48.576;19.122;2023-02-12T18:04:50;9.60;47.00
14873;DHT22;7528;48.576;19.122;2023-02-12T18:09:53;9.40;47.50
14873;DHT22;7528;48.576;19.122;2023-02-12T18:14:56;9.30;47.90
14873;DHT22;7528;48.576;19.122;2023-02-12T18:19:59;9.10;48.30
14873;DHT22;7528;48.576;19.122;2023-02-12T18:25:03;8.90;48.60
14873;DHT22;7528;48.576;19.122;2023-02-12T18:30:07;8.80;48.90
14873;DHT22;7528;48.576;19.122;2023-02-12T18:35:10;8.50;49.20
14873;DHT22;7528;48.576;19.122;2023-02-12T19:46:34;4.90;58.40
14873;DHT22;7528;48.576;19.122;2023-02-12T19:51:38;5.30;58.80
14873;DHT22;7528;48.576;19.122;2023-02-12T19:56:41;5.60;58.20
14873;DHT22;7528;48.576;19.122;2023-02-12T20:01:46;5.80;57.40
14873;DHT22;7528;48.576;19.122;2023-02-12T20:06:48;6.00;56.80
14873;DHT22;7528;48.576;19.122;2023-02-12T20:11:52;6.10;56.40
14873;DHT22;7528;48.576;19.122;2023-02-12T20:16:56;6.00;57.00
14873;DHT22;7528;48.576;19.122;2023-02-12T20:21:59;5.90;56.50
14873;DHT22;7528;48.576;19.122;2023-02-12T20:27:03;5.80;56.40
14873;DHT22;7528;48.576;19.122;2023-02-12T20:32:07;5.70;56.20
14873;DHT22;7528;48.576;19.122;2023-02-12T20:37:10;5.80;56.40
14873;DHT22;7528;48.576;19.122;2023-02-12T20:42:15;5.60;56.50
14873;DHT22;7528;48.576;19.122;2023-02-12T20:47:18;5.60;57.00
14873;DHT22;7528;48.576;19.122;2023-02-12T20:52:23;5.50;56.90
14873;DHT22;7528;48.576;19.122;2023-02-12T20:57:25;5.40;56.90
14873;DHT22;7528;48.576;19.122;2023-02-12T21:02:29;5.40;57.20
14873;DHT22;7528;48.576;19.122;2023-02-12T21:07:32;5.20;57.60
14873;DHT22;7528;48.576;19.122;2023-02-12T21:12:34;5.10;58.10
14873;DHT22;7528;48.576;19.122;2023-02-12T21:17:38;5.00;58.20
14873;DHT22;7528;48.576;19.122;2023-02-12T21:22:40;5.00;57.90
14873;DHT22;7528;48.576;19.122;2023-02-12T21:27:42;4.90;58.00
14873;DHT22;7528;48.576;19.122;2023-02-12T21:32:46;4.90;58.20
14873;DHT22;7528;48.576;19.122;2023-02-12T21:37:49;4.80;58.30
14873;DHT22;7528;48.576;19.122;2023-02-12T21:42:51;4.80;58.30
14873;DHT22;7528;48.576;19.122;2023-02-12T21:47:56;4.70;58.20
14873;DHT22;7528;48.576;19.122;2023-02-12T21:52:59;4.60;58.70
14873;DHT22;7528;48.576;19.122;2023-02-12T21:58:01;4.50;59.10
14873;DHT22;7528;48.576;19.122;2023-02-12T22:03:05;4.50;59.20
14873;DHT22;7528;48.576;19.122;2023-02-12T22:08:07;4.50;59.00
14873;DHT22;7528;48.576;19.122;2023-02-12T22:13:10;4.40;59.00
14873;DHT22;7528;48.576;19.122;2023-02-12T22:18:13;4.30;59.00
14873;DHT22;7528;48.576;19.122;2023-02-12T22:23:16;4.30;59.30
14873;DHT22;7528;48.576;19.122;2023-02-12T22:28:18;4.20;59.10
14873;DHT22;7528;48.576;19.122;2023-02-12T22:33:22;4.20;59.50
14873;DHT22;7528;48.576;19.122;2023-02-12T22:38:24;4.10;59.80
14873;DHT22;7528;48.576;19.122;2023-02-12T22:43:27;3.90;60.50
14873;DHT22;7528;48.576;19.122;2023-02-12T22:48:31;3.80;60.40
14873;DHT22;7528;48.576;19.122;2023-02-12T22:53:34;3.80;59.90
14873;DHT22;7528;48.576;19.122;2023-02-12T22:58:36;3.70;59.90
14873;DHT22;7528;48.576;19.122;2023-02-12T23:03:41;3.70;59.80
14873;DHT22;7528;48.576;19.122;2023-02-12T23:08:43;3.60;60.00
14873;DHT22;7528;48.576;19.122;2023-02-12T23:13:48;3.50;60.60
14873;DHT22;7528;48.576;19.122;2023-02-12T23:18:54;3.60;60.50
14873;DHT22;7528;48.576;19.122;2023-02-12T23:23:58;3.50;60.00
14873;DHT22;7528;48.576;19.122;2023-02-12T23:29:00;3.40;60.10
14873;DHT22;7528;48.576;19.122;2023-02-12T23:34:04;3.40;60.20
14873;DHT22;7528;48.576;19.122;2023-02-12T23:39:08;3.40;60.50
14873;DHT22;7528;48.576;19.122;2023-02-12T23:44:11;3.40;60.60
14873;DHT22;7528;48.576;19.122;2023-02-12T23:49:14;3.30;59.90
14873;DHT22;7528;48.576;19.122;2023-02-12T23:54:17;3.20;60.20
14873;DHT22;7528;48.576;19.122;2023-02-12T23:59:20;3.20;60.80
